Time;durP1;ratioP1;P1;durP2;ratioP2;P2;SDS_P1;SDS_P2;PMS_P1;PMS_P2;Temp;Humidity;BMP_temperature;BMP_pressure;BME280_temperature;BME280_humidity;BME280_pressure;Samples;Min_cycle;Max_cycle;Signal;HPM_P1;HPM_P2
2021/11/13 00:00:13;;;;;;;68.18;43.10;;;;;;;6.83;100.00;100907.63;5066294;28;20033;-62
2021/11/13 00:02:39;;;;;;;71.95;44.42;;;;;;;6.84;100.00;100893.66;5065889;28;20142;-62
2021/11/13 00:05:05;;;;;;;71.18;43.60;;;;;;;6.82;100.00;100900.63;5065748;28;20088;-62
2021/11/13 00:07:31;;;;;;;71.15;42.20;;;;;;;6.81;100.00;100889.22;5066705;28;20471;-62
2021/11/13 00:09:56;;;;;;;79.32;46.85;;;;;;;6.83;100.00;100898.03;5064843;28;20028;-63
2021/11/13 00:12:22;;;;;;;76.22;45.38;;;;;;;6.82;100.00;100895.38;5067751;28;20400;-62
2021/11/13 00:14:47;;;;;;;83.60;47.17;;;;;;;6.88;100.00;100898.13;5063458;28;20471;-62
2021/11/13 00:17:13;;;;;;;85.78;48.10;;;;;;;6.88;100.00;100896.34;5068209;28;20028;-62
2021/11/13 00:19:43;;;;;;;79.85;46.70;;;;;;;6.89;100.00;100890.25;5064231;28;20103;-62
2021/11/13 00:22:09;;;;;;;78.35;44.38;;;;;;;6.88;100.00;100880.59;5067531;28;20028;-62
2021/11/13 00:24:36;;;;;;;85.30;48.50;;;;;;;6.94;100.00;100879.84;5065409;28;20033;-62
2021/11/13 00:27:03;;;;;;;83.28;46.75;;;;;;;6.93;100.00;100884.22;5064145;28;20021;-62
2021/11/13 00:29:28;;;;;;;80.70;44.72;;;;;;;6.95;100.00;100881.63;5067227;28;20032;-62
2021/11/13 00:31:54;;;;;;;78.07;45.22;;;;;;;6.96;100.00;100873.75;5064781;28;20376;-62
2021/11/13 00:34:19;;;;;;;90.70;50.35;;;;;;;6.91;100.00;100872.75;5065825;28;20021;-62
2021/11/13 00:36:45;;;;;;;89.25;49.30;;;;;;;6.94;100.00;100867.56;5065947;28;20379;-62
2021/11/13 00:39:11;;;;;;;92.50;49.20;;;;;;;6.96;100.00;100865.88;5064687;28;20021;-62
2021/11/13 00:41:36;;;;;;;93.93;49.88;;;;;;;6.94;100.00;100862.31;5066805;28;20031;-63
2021/11/13 00:44:04;;;;;;;91.35;49.53;;;;;;;6.94;100.00;100857.06;5064098;28;20037;-62
2021/11/13 00:46:30;;;;;;;91.53;48.92;;;;;;;7.01;100.00;100859.81;5067154;28;20027;-62
2021/11/13 00:48:55;;;;;;;94.00;50.47;;;;;;;6.97;100.00;100854.50;5064637;28;20391;-62
2021/11/13 00:51:21;;;;;;;91.13;48.67;;;;;;;7.02;100.00;100856.31;5065295;28;20495;-62
2021/11/13 00:53:46;;;;;;;96.57;51.05;;;;;;;7.00;100.00;100856.28;5064756;28;20665;-63
2021/11/13 00:56:12;;;;;;;90.03;48.70;;;;;;;7.01;100.00;100846.69;5064304;28;20013;-63
2021/11/13 00:58:37;;;;;;;82.93;46.10;;;;;;;7.10;100.00;100842.47;5066676;28;20498;-62
2021/11/13 01:01:04;;;;;;;94.22;51.30;;;;;;;7.06;100.00;100842.38;5063358;28;20028;-65
2021/11/13 01:03:31;;;;;;;99.40;52.88;;;;;;;7.08;100.00;100831.03;5066587;28;20464;-64
2021/11/13 01:05:56;;;;;;;88.20;47.17;;;;;;;7.07;100.00;100834.53;5064021;28;20040;-63
2021/11/13 01:08:21;;;;;;;95.20;50.60;;;;;;;7.08;100.00;100836.31;5065335;28;20036;-62
2021/11/13 01:10:47;;;;;;;90.72;50.55;;;;;;;7.17;100.00;100835.59;5065067;28;20028;-62
2021/11/13 01:13:13;;;;;;;91.40;49.63;;;;;;;7.15;100.00;100832.94;5064333;28;20033;-63
2021/11/13 01:15:38;;;;;;;97.95;52.08;;;;;;;7.18;100.00;100837.38;5066353;28;20024;-63
2021/11/13 01:18:04;;;;;;;90.15;49.25;;;;;;;7.17;100.00;100835.59;5063086;28;20358;-62
2021/11/13 01:20:29;;;;;;;84.82;48.58;;;;;;;7.23;100.00;100830.44;5066462;28;20056;-62
2021/11/13 01:22:56;;;;;;;85.50;47.45;;;;;;;7.29;100.00;100835.78;5062554;28;20508;-63
2021/11/13 01:25:21;;;;;;;88.32;48.00;;;;;;;7.32;100.00;100825.34;5064834;28;20021;-63
2021/11/13 01:27:46;;;;;;;82.82;47.50;;;;;;;7.35;100.00;100834.13;5064931;28;20459;-63
2021/11/13 01:30:13;;;;;;;90.32;50.53;;;;;;;7.36;100.00;100835.91;5063536;28;20033;-63
2021/11/13 01:32:39;;;;;;;87.97;46.53;;;;;;;7.41;100.00;100819.38;5065576;28;20048;-62
2021/11/13 01:35:07;;;;;;;76.95;44.13;;;;;;;7.44;100.00;100818.50;5062982;28;20028;-62
2021/11/13 01:37:32;;;;;;;82.65;46.47;;;;;;;7.51;100.00;100820.38;5062675;28;20103;-64
2021/11/13 01:39:58;;;;;;;84.88;45.25;;;;;;;7.45;100.00;100812.38;5065684;28;20025;-63
2021/11/13 01:42:26;;;;;;;83.43;47.10;;;;;;;7.53;100.00;100804.63;5063690;28;20029;-63
2021/11/13 01:44:53;;;;;;;85.25;47.25;;;;;;;7.51;100.00;100817.75;5064468;28;20112;-62
2021/11/13 01:47:19;;;;;;;78.65;44.45;;;;;;;7.59;100.00;100807.38;5064440;28;20028;-63
2021/11/13 01:49:44;;;;;;;83.28;47.58;;;;;;;7.56;100.00;100808.19;5063591;28;20552;-63
2021/11/13 01:52:11;;;;;;;90.30;49.33;;;;;;;7.54;100.00;100799.38;5065642;28;20107;-63
2021/11/13 01:54:39;;;;;;;90.13;48.50;;;;;;;7.55;100.00;100801.16;5062521;28;20046;-63
2021/11/13 01:57:09;;;;;;;97.38;51.10;;;;;;;7.56;100.00;100781.88;5062311;28;20021;-65
2021/11/13 01:59:35;;;;;;;94.22;51.25;;;;;;;7.59;100.00;100794.22;5062151;28;20381;-63
2021/11/13 02:02:01;;;;;;;94.40;50.03;;;;;;;7.67;100.00;100792.56;5065335;28;20028;-63
2021/11/13 02:04:26;;;;;;;88.40;49.60;;;;;;;7.65;100.00;100781.16;5063060;28;20028;-63
2021/11/13 02:06:51;;;;;;;91.82;50.58;;;;;;;7.66;100.00;100791.69;5064316;28;20021;-63
2021/11/13 02:09:16;;;;;;;89.35;50.78;;;;;;;7.67;100.00;100785.59;5064246;28;20379;-63
2021/11/13 02:11:42;;;;;;;89.57;49.70;;;;;;;7.71;100.00;100790.88;5062553;28;20029;-63
2021/11/13 02:14:07;;;;;;;91.13;50.25;;;;;;;7.71;100.00;100788.25;5065190;28;20487;-63
2021/11/13 02:16:33;;;;;;;91.68;50.78;;;;;;;7.72;100.00;100782.09;5062332;28;20025;-67
2021/11/13 02:18:58;;;;;;;101.85;51.35;;;;;;;7.73;100.00;100776.88;5064728;28;20028;-69
2021/11/13 02:21:26;;;;;;;90.30;50.72;;;;;;;7.77;100.00;100773.41;5062732;28;20031;-69
2021/11/13 02:23:52;;;;;;;94.47;49.35;;;;;;;7.78;100.00;100762.03;5063962;28;20460;-70
2021/11/13 02:26:17;;;;;;;92.60;50.78;;;;;;;7.82;100.00;100778.75;5063635;28;20025;-69
2021/11/13 02:28:43;;;;;;;83.88;45.20;;;;;;;7.85;100.00;100765.66;5062419;28;20059;-69
2021/11/13 02:31:10;;;;;;;90.25;49.72;;;;;;;7.83;100.00;100770.00;5064880;28;20040;-70
2021/11/13 02:33:37;;;;;;;92.75;49.15;;;;;;;7.84;100.00;100771.78;5061729;28;20445;-70
2021/11/13 02:36:05;;;;;;;89.78;50.03;;;;;;;7.87;100.00;100765.69;5061658;28;20042;-69
2021/11/13 02:38:37;;;;;;;95.65;50.88;;;;;;;7.84;100.00;100762.13;5064952;28;20024;-70
2021/11/13 02:41:09;;;;;;;92.18;47.95;;;;;;;7.86;100.00;100770.03;5061394;28;20033;-70
2021/11/13 02:43:36;;;;;;;85.10;48.08;;;;;;;7.87;100.00;100770.94;5061337;28;20028;-70
2021/11/13 02:46:05;;;;;;;95.60;51.70;;;;;;;7.87;100.00;100766.56;5064735;28;20081;-68
2021/11/13 02:48:33;;;;;;;88.63;47.40;;;;;;;7.91;100.00;100760.47;5061716;28;20576;-68
2021/11/13 02:50:58;;;;;;;90.35;48.78;;;;;;;7.94;100.00;100763.16;5064434;28;20353;-70
2021/11/13 02:53:26;;;;;;;86.97;45.33;;;;;;;7.93;100.00;100756.09;5062684;28;20093;-70
2021/11/13 02:55:54;;;;;;;86.93;47.03;;;;;;;7.89;100.00;100759.56;5063273;28;20426;-69
2021/11/13 02:58:21;;;;;;;86.95;48.10;;;;;;;7.93;100.00;100756.09;5062973;28;20093;-70
2021/11/13 03:00:49;;;;;;;93.75;48.63;;;;;;;7.93;100.00;100764.00;5062283;28;20025;-70
2021/11/13 03:03:19;;;;;;;86.88;44.92;;;;;;;7.94;100.00;100764.91;5063740;28;20028;-70
2021/11/13 03:05:53;;;;;;;91.70;49.30;;;;;;;7.93;100.00;100760.50;5062299;28;20435;-70
2021/11/13 03:08:25;;;;;;;85.82;48.33;;;;;;;7.93;100.00;100760.50;5063135;28;20039;-63
2021/11/13 03:10:53;;;;;;;84.18;45.78;;;;;;;7.94;100.00;100759.63;5063065;28;20101;-63
2021/11/13 03:13:18;;;;;;;78.05;44.67;;;;;;;7.94;100.00;100762.28;5063338;28;20152;-63
2021/11/13 03:15:44;;;;;;;79.75;44.28;;;;;;;7.95;100.00;100770.19;5061428;28;20021;-63
2021/11/13 03:18:10;;;;;;;80.93;44.97;;;;;;;7.97;100.00;100760.56;5064230;28;20158;-63
2021/11/13 03:20:35;;;;;;;74.45;41.83;;;;;;;7.95;100.00;100762.28;5060976;28;20361;-63
2021/11/13 03:23:02;;;;;;;71.45;42.20;;;;;;;8.01;100.00;100770.25;5064210;28;20036;-63
2021/11/13 03:25:32;;;;;;;73.35;42.50;;;;;;;8.00;100.00;100771.13;5061390;28;20685;-62
2021/11/13 03:28:00;;;;;;;66.70;40.15;;;;;;;8.03;100.00;100767.66;5063804;28;20111;-63
2021/11/13 03:30:26;;;;;;;71.68;42.00;;;;;;;8.05;100.00;100770.31;5061458;28;20032;-63
2021/11/13 03:32:52;;;;;;;72.18;43.00;;;;;;;8.00;100.00;100764.97;5062813;28;20029;-62
2021/11/13 03:35:27;;;;;;;67.80;39.92;;;;;;;8.02;100.00;100766.78;5063157;28;20434;-63
2021/11/13 03:37:53;;;;;;;68.47;40.00;;;;;;;8.06;100.00;100764.19;5062554;28;20029;-63
2021/11/13 03:40:18;;;;;;;70.65;41.75;;;;;;;8.03;100.00;100757.13;5062570;28;20463;-63
2021/11/13 03:42:43;;;;;;;63.17;39.30;;;;;;;8.10;100.00;100758.09;5061681;28;20104;-63
2021/11/13 03:45:09;;;;;;;61.38;37.35;;;;;;;8.08;100.00;100754.53;5063932;28;20112;-63
2021/11/13 03:47:34;;;;;;;57.42;35.10;;;;;;;8.13;100.00;100759.00;5060919;28;20021;-70
2021/11/13 03:50:00;;;;;;;62.08;37.15;;;;;;;8.10;100.00;100756.34;5064041;28;20016;-70
2021/11/13 03:52:25;;;;;;;60.38;37.20;;;;;;;8.11;100.00;100755.47;5061574;28;20025;-68
2021/11/13 03:54:51;;;;;;;58.28;36.45;;;;;;;8.15;100.00;100762.53;5062168;28;20379;-69
2021/11/13 03:57:16;;;;;;;58.08;36.22;;;;;;;8.13;100.00;100756.38;5063076;28;20047;-69
2021/11/13 03:59:42;;;;;;;61.17;36.05;;;;;;;8.13;100.00;100758.13;5061226;28;20104;-69
2021/11/13 04:02:10;;;;;;;62.20;38.22;;;;;;;8.12;100.00;100751.97;5063990;28;20029;-69
2021/11/13 04:04:37;;;;;;;59.92;36.53;;;;;;;8.12;100.00;100756.34;5060750;28;20025;-70
2021/11/13 04:07:03;;;;;;;57.85;35.25;;;;;;;8.20;100.00;100752.97;5060447;28;20096;-69
2021/11/13 04:09:28;;;;;;;58.00;34.95;;;;;;;8.19;100.00;100752.94;5063373;28;20108;-70
2021/11/13 04:11:54;;;;;;;59.55;35.28;;;;;;;8.17;100.00;100754.69;5061987;28;20028;-69
2021/11/13 04:14:19;;;;;;;56.55;34.28;;;;;;;8.18;100.00;100752.06;5062167;28;20032;-69
2021/11/13 04:16:44;;;;;;;55.80;34.25;;;;;;;8.22;100.00;100757.38;5062971;28;20531;-69
2021/11/13 04:19:10;;;;;;;54.00;32.90;;;;;;;8.24;100.00;100756.50;5060721;28;20380;-69
2021/11/13 04:21:37;;;;;;;52.95;32.58;;;;;;;8.26;100.00;100762.69;5063653;28;20111;-70
2021/11/13 04:24:03;;;;;;;58.30;35.13;;;;;;;8.21;100.00;100759.09;5060111;28;20028;-65
2021/11/13 04:26:29;;;;;;;56.50;34.38;;;;;;;8.23;100.00;100764.38;5064254;28;20036;-63
2021/11/13 04:28:54;;;;;;;55.30;32.00;;;;;;;8.26;100.00;100767.97;5063951;28;20032;-64
2021/11/13 04:31:19;;;;;;;55.72;33.42;;;;;;;8.25;100.00;100760.91;5067630;28;20050;-63
2021/11/13 04:33:45;;;;;;;58.55;35.75;;;;;;;8.27;100.00;100759.19;5064326;28;20490;-63
2021/11/13 04:38:38;;;;;;;62.42;36.95;;;;;;;8.27;100.00;100767.09;5064814;28;20036;-63
2021/11/13 04:41:05;;;;;;;63.67;37.33;;;;;;;8.27;100.00;100767.09;5064877;28;20379;-65
2021/11/13 04:43:31;;;;;;;65.18;37.95;;;;;;;8.25;100.00;100763.53;5065334;28;20025;-64
2021/11/13 04:45:56;;;;;;;65.55;37.60;;;;;;;8.27;100.00;100758.28;5066274;28;20031;-65
2021/11/13 04:48:22;;;;;;;64.05;37.47;;;;;;;8.28;100.00;100760.94;5063994;28;20017;-65
2021/11/13 04:50:48;;;;;;;63.00;38.10;;;;;;;8.33;100.00;100767.16;5067251;28;20032;-64
2021/11/13 04:53:13;;;;;;;72.78;39.95;;;;;;;8.33;100.00;100761.91;5063989;28;20021;-64
2021/11/13 04:55:39;;;;;;;67.50;38.83;;;;;;;8.35;100.00;100761.91;5066050;28;20399;-64
2021/11/13 04:58:04;;;;;;;68.82;38.25;;;;;;;8.32;100.00;100768.03;5064606;28;20032;-65
2021/11/13 05:00:32;;;;;;;69.38;39.85;;;;;;;8.35;100.00;100772.44;5064955;28;20068;-64
2021/11/13 05:02:58;;;;;;;79.53;41.22;;;;;;;8.34;100.00;100766.31;5065456;28;20090;-65
2021/11/13 05:05:24;;;;;;;72.03;40.42;;;;;;;8.36;100.00;100767.19;5063997;28;20025;-64
2021/11/13 05:07:50;;;;;;;72.95;41.88;;;;;;;8.38;100.00;100785.66;5067245;28;20024;-65
2021/11/13 05:10:17;;;;;;;74.50;41.35;;;;;;;8.40;100.00;100772.50;5063121;28;20029;-64
2021/11/13 05:12:43;;;;;;;73.40;40.70;;;;;;;8.38;100.00;100783.91;5066646;28;20054;-64
2021/11/13 05:15:10;;;;;;;79.40;42.83;;;;;;;8.37;100.00;100797.06;5064043;28;21109;-64
2021/11/13 05:17:36;;;;;;;84.88;44.50;;;;;;;8.39;100.00;100792.72;5065416;28;20025;-64
2021/11/13 05:20:03;;;;;;;83.65;44.83;;;;;;;8.40;100.00;100794.44;5064434;28;20033;-64
2021/11/13 05:22:28;;;;;;;82.93;43.50;;;;;;;8.38;100.00;100793.56;5064765;28;20029;-64
2021/11/13 05:24:54;;;;;;;82.30;44.33;;;;;;;8.38;100.00;100791.78;5064326;28;20032;-64
2021/11/13 05:27:19;;;;;;;91.28;45.10;;;;;;;8.40;100.00;100796.22;5062728;28;20029;-63
2021/11/13 05:29:45;;;;;;;95.18;45.10;;;;;;;8.37;100.00;100797.97;5066515;28;20069;-63
2021/11/13 05:32:10;;;;;;;80.15;44.35;;;;;;;8.41;100.00;100798.88;5063571;28;20045;-64
2021/11/13 05:34:36;;;;;;;82.75;43.03;;;;;;;8.43;100.00;100794.53;5065502;28;20029;-63
2021/11/13 05:37:02;;;;;;;82.88;45.35;;;;;;;8.42;100.00;100803.28;5064748;28;20021;-64
2021/11/13 05:39:27;;;;;;;85.68;42.78;;;;;;;8.41;100.00;100795.34;5063158;28;20535;-65
2021/11/13 05:41:53;;;;;;;88.25;43.60;;;;;;;8.42;100.00;100784.84;5065693;28;20097;-64
2021/11/13 05:44:18;;;;;;;85.72;42.50;;;;;;;8.41;100.00;100801.50;5062536;28;20025;-64
2021/11/13 05:46:44;;;;;;;81.82;39.97;;;;;;;8.43;100.00;100801.50;5065889;28;20464;-64
2021/11/13 05:49:09;;;;;;;87.60;43.03;;;;;;;8.42;100.00;100810.28;5063276;28;20029;-64
2021/11/13 05:51:34;;;;;;;90.10;42.15;;;;;;;8.41;100.00;100809.41;5064531;28;20033;-64
2021/11/13 05:54:00;;;;;;;81.80;40.47;;;;;;;8.43;100.00;100814.69;5064283;28;20020;-64
2021/11/13 05:56:26;;;;;;;75.63;39.85;;;;;;;8.47;100.00;100806.88;5063269;28;20530;-65
2021/11/13 05:58:51;;;;;;;78.00;39.10;;;;;;;8.48;100.00;100802.50;5065510;28;20021;-64
2021/11/13 06:01:16;;;;;;;79.80;41.95;;;;;;;8.49;100.00;100796.34;5062257;28;20040;-64
2021/11/13 06:03:42;;;;;;;74.38;39.53;;;;;;;8.50;100.00;100798.13;5065486;28;20017;-64
2021/11/13 06:06:07;;;;;;;81.28;40.72;;;;;;;8.49;100.00;100798.97;5063145;28;20863;-69
2021/11/13 06:08:32;;;;;;;92.07;42.30;;;;;;;8.47;100.00;100800.72;5064052;28;20013;-69
2021/11/13 06:10:58;;;;;;;88.50;39.50;;;;;;;8.47;100.00;100808.63;5064806;28;20498;-70
2021/11/13 06:13:23;;;;;;;88.35;40.78;;;;;;;8.47;100.00;100811.25;5062295;28;20491;-70
2021/11/13 06:15:48;;;;;;;79.75;39.65;;;;;;;8.49;100.00;100814.78;5065551;28;20028;-69
2021/11/13 06:18:14;;;;;;;77.45;38.92;;;;;;;8.50;100.00;100808.66;5061942;28;20021;-70
2021/11/13 06:20:39;;;;;;;89.28;40.50;;;;;;;8.48;100.00;100820.94;5064396;28;20036;-70
2021/11/13 06:23:04;;;;;;;92.28;41.70;;;;;;;8.47;100.00;100821.81;5063395;28;20033;-70
2021/11/13 06:25:30;;;;;;;88.40;39.50;;;;;;;8.47;100.00;100821.81;5063158;28;20386;-70
2021/11/13 06:27:55;;;;;;;92.30;41.83;;;;;;;8.48;100.00;100834.13;5064210;28;20028;-70
2021/11/13 06:30:20;;;;;;;85.05;41.15;;;;;;;8.50;100.00;100838.56;5061994;28;20083;-70
2021/11/13 06:32:48;;;;;;;82.78;39.03;;;;;;;8.51;100.00;100839.44;5065013;28;20036;-70
2021/11/13 06:35:14;;;;;;;86.80;40.97;;;;;;;8.52;100.00;100847.34;5061890;28;20495;-69
2021/11/13 06:37:40;;;;;;;88.28;39.60;;;;;;;8.54;100.00;100856.13;5063125;28;20383;-69
2021/11/13 06:40:08;;;;;;;83.07;39.92;;;;;;;8.57;100.00;100843.88;5062663;28;20100;-64
2021/11/13 06:42:36;;;;;;;85.55;36.88;;;;;;;8.59;100.00;100853.59;5063019;28;20029;-65
2021/11/13 06:45:01;;;;;;;82.32;38.95;;;;;;;8.60;100.00;100849.19;5063562;28;20029;-64
2021/11/13 06:47:27;;;;;;;89.88;39.38;;;;;;;8.59;100.00;100845.69;5062326;28;20021;-64
2021/11/13 06:49:52;;;;;;;90.45;42.28;;;;;;;8.62;100.00;100847.44;5063522;28;20029;-63
2021/11/13 06:52:17;;;;;;;93.57;41.40;;;;;;;8.62;100.00;100845.72;5061553;28;20082;-64
2021/11/13 06:54:43;;;;;;;90.80;39.88;;;;;;;8.62;100.00;100847.44;5064323;28;20373;-63
2021/11/13 06:57:08;;;;;;;103.10;41.50;;;;;;;8.61;100.00;100846.56;5062099;28;20115;-63
2021/11/13 06:59:34;;;;;;;109.03;42.25;;;;;;;8.63;100.00;100842.19;5062916;28;20373;-64
2021/11/13 07:01:59;;;;;;;90.50;40.17;;;;;;;8.62;100.00;100840.44;5063172;28;20486;-64
2021/11/13 07:04:24;;;;;;;89.75;40.22;;;;;;;8.63;100.00;100850.09;5061868;28;20033;-64
2021/11/13 07:06:50;;;;;;;96.45;42.42;;;;;;;8.62;100.00;100847.44;5064781;28;20028;-64
2021/11/13 07:09:16;;;;;;;93.20;41.08;;;;;;;8.64;100.00;100864.19;5061032;28;20082;-65
2021/11/13 07:11:41;;;;;;;97.15;42.70;;;;;;;8.64;100.00;100862.41;5064126;28;20033;-64
2021/11/13 07:14:07;;;;;;;102.72;43.65;;;;;;;8.64;100.00;100869.47;5061849;28;20376;-63
2021/11/13 07:16:32;;;;;;;104.20;42.92;;;;;;;8.64;100.00;100867.69;5062463;28;20033;-63
2021/11/13 07:18:57;;;;;;;106.03;42.92;;;;;;;8.65;100.00;100877.38;5063433;28;20028;-63
2021/11/13 07:21:23;;;;;;;107.15;43.05;;;;;;;8.66;100.00;100883.53;5061056;28;20074;-63
2021/11/13 07:23:49;;;;;;;95.65;41.65;;;;;;;8.68;100.00;100882.69;5064349;28;20129;-64
2021/11/13 07:26:18;;;;;;;102.20;42.33;;;;;;;8.66;100.00;100887.03;5061032;28;20132;-64
2021/11/13 07:28:47;;;;;;;103.78;42.83;;;;;;;8.68;100.00;100887.97;5065310;28;20056;-64
2021/11/13 07:31:16;;;;;;;109.60;43.65;;;;;;;8.68;100.00;100901.13;5061885;28;20037;-63
2021/11/13 07:33:44;;;;;;;102.82;42.28;;;;;;;8.70;100.00;100888.84;5062173;28;20042;-65
2021/11/13 07:36:17;;;;;;;106.30;41.85;;;;;;;8.70;100.00;100890.59;5059845;28;20035;-63
2021/11/13 07:38:42;;;;;;;114.57;43.83;;;;;;;8.73;100.00;100898.56;5063729;28;20493;-63
2021/11/13 07:41:11;;;;;;;111.97;42.78;;;;;;;8.76;100.00;100897.72;5062142;28;20029;-63
2021/11/13 07:43:37;;;;;;;108.20;43.10;;;;;;;8.80;100.00;100902.16;5061720;28;20021;-64
2021/11/13 07:46:03;;;;;;;100.82;42.92;;;;;;;8.87;100.00;100906.66;5071284;28;20033;-63
2021/11/13 07:48:28;;;;;;;111.88;42.05;;;;;;;8.91;100.00;100913.69;5070782;28;20025;-65
2021/11/13 07:50:54;;;;;;;104.85;42.92;;;;;;;8.93;100.00;100909.34;5070641;28;20028;-64
2021/11/13 07:53:19;;;;;;;119.00;41.97;;;;;;;9.06;100.00;100913.91;5070011;28;20029;-64
2021/11/13 07:55:45;;;;;;;117.43;43.88;;;;;;;9.08;100.00;100914.78;5065218;28;20028;-62
2021/11/13 07:58:20;;;;;;;100.10;41.55;;;;;;;9.08;100.00;100914.78;5061090;28;20042;-64
2021/11/13 08:00:48;;;;;;;103.53;40.35;;;;;;;9.05;100.00;100922.66;5068086;28;20017;-63
2021/11/13 08:03:23;;;;;;;101.20;40.88;;;;;;;9.05;100.00;100920.03;5075275;28;20059;-61
2021/11/13 08:05:53;;;;;;;94.38;39.33;;;;;;;9.04;100.00;100914.75;5071546;28;20036;-63
2021/11/13 08:08:24;;;;;;;101.00;40.65;;;;;;;9.01;100.00;100920.88;5073874;28;20562;-62
2021/11/13 08:10:50;;;;;;;109.00;39.38;;;;;;;9.04;100.00;100920.91;5073007;28;20025;-65
2021/11/13 08:13:18;;;;;;;96.00;37.90;;;;;;;9.05;100.00;100921.78;5074451;28;20495;-63
2021/11/13 08:15:48;;;;;;;98.10;38.55;;;;;;;9.05;100.00;100922.66;5074753;28;20062;-62
2021/11/13 08:18:13;;;;;;;110.13;39.78;;;;;;;9.04;100.00;100920.00;5074282;28;20476;-62
2021/11/13 08:20:40;;;;;;;100.47;38.90;;;;;;;9.06;100.00;100929.72;5071802;28;20036;-62
2021/11/13 08:23:09;;;;;;;95.40;39.60;;;;;;;9.07;100.00;100930.59;5074344;28;20025;-61
2021/11/13 08:25:36;;;;;;;101.72;39.40;;;;;;;9.11;100.00;100928.91;5074328;28;20032;-62
2021/11/13 08:28:06;;;;;;;102.97;38.08;;;;;;;9.14;100.00;100927.16;5074368;28;20024;-62
2021/11/13 08:30:33;;;;;;;101.63;38.45;;;;;;;9.19;100.00;100932.53;5073931;28;20063;-63
2021/11/13 08:32:59;;;;;;;101.63;38.90;;;;;;;9.23;100.00;100932.56;5074107;28;20118;-62
2021/11/13 08:35:25;;;;;;;98.53;37.05;;;;;;;9.26;100.00;100931.69;5074135;28;20024;-63
2021/11/13 08:37:50;;;;;;;96.45;35.83;;;;;;;9.34;100.00;100935.31;5074363;28;20035;-64
2021/11/13 08:40:16;;;;;;;91.60;36.00;;;;;;;9.39;100.00;100938.91;5073979;28;20436;-64
2021/11/13 08:42:42;;;;;;;93.75;35.92;;;;;;;9.41;100.00;100934.50;5074064;28;20031;-65
2021/11/13 08:45:08;;;;;;;91.85;35.88;;;;;;;9.46;100.00;100942.47;5071946;28;20044;-63
2021/11/13 08:47:35;;;;;;;81.82;34.40;;;;;;;9.50;100.00;100952.19;5072643;28;20020;-63
2021/11/13 08:50:01;;;;;;;80.38;34.47;;;;;;;9.46;100.00;100945.09;5072155;28;20024;-63
2021/11/13 08:52:27;;;;;;;92.78;36.03;;;;;;;9.49;100.00;100944.25;5074022;28;20021;-63
2021/11/13 08:54:52;;;;;;;82.68;34.97;;;;;;;9.50;100.00;100946.91;5073421;28;20036;-63
2021/11/13 08:57:17;;;;;;;87.50;36.55;;;;;;;9.55;100.00;100944.31;5073422;28;20032;-63
2021/11/13 08:59:43;;;;;;;85.70;34.47;;;;;;;9.53;100.00;100946.94;5073797;28;20024;-63
2021/11/13 09:02:17;;;;;;;75.70;32.17;;;;;;;9.51;100.00;100947.78;5073013;28;20064;-64
2021/11/13 09:04:44;;;;;;;84.70;35.65;;;;;;;9.48;100.00;100958.31;5073976;28;20033;-63
2021/11/13 09:07:09;;;;;;;85.82;35.65;;;;;;;9.47;100.00;100951.28;5070769;28;20017;-64
2021/11/13 09:09:37;;;;;;;83.63;34.63;;;;;;;9.47;100.00;100957.44;5064275;28;20090;-64
2021/11/13 09:12:06;;;;;;;80.43;33.42;;;;;;;9.56;100.00;100956.66;5061650;28;20029;-63
2021/11/13 09:14:33;;;;;;;78.70;34.65;;;;;;;9.63;100.00;100958.47;5067017;28;20067;-64
2021/11/13 09:17:00;;;;;;;75.65;33.22;;;;;;;9.65;100.00;100961.13;5072839;28;20085;-64
2021/11/13 09:19:25;;;;;;;81.57;34.33;;;;;;;9.66;100.00;100955.88;5073225;28;20025;-63
2021/11/13 09:21:52;;;;;;;74.15;34.83;;;;;;;9.66;100.00;100957.63;5073654;28;20379;-63
2021/11/13 09:24:19;;;;;;;76.45;33.92;;;;;;;9.74;100.00;100966.50;5071416;28;20081;-63
2021/11/13 09:26:45;;;;;;;78.32;34.70;;;;;;;9.79;100.00;100966.56;5072938;28;20111;-63
2021/11/13 09:29:10;;;;;;;81.47;34.92;;;;;;;9.87;100.00;100962.22;5073616;28;20468;-64
2021/11/13 09:31:41;;;;;;;72.53;33.40;;;;;;;9.86;100.00;100971.00;5072874;28;20076;-63
2021/11/13 09:34:14;;;;;;;71.40;32.80;;;;;;;9.85;100.00;100969.25;5073235;28;20488;-64
2021/11/13 09:36:40;;;;;;;71.57;32.97;;;;;;;9.86;100.00;100977.19;5072375;28;20021;-62
2021/11/13 09:39:06;;;;;;;68.32;32.28;;;;;;;9.83;100.00;100970.97;5073216;28;20092;-63
2021/11/13 09:41:33;;;;;;;71.00;32.95;;;;;;;9.89;100.00;100974.56;5072788;28;20123;-64
2021/11/13 09:43:59;;;;;;;70.35;33.53;;;;;;;9.91;100.00;100974.59;5071787;28;20387;-63
2021/11/13 09:46:25;;;;;;;62.78;30.35;;;;;;;9.98;100.00;100975.53;5072575;28;20021;-62
2021/11/13 09:48:55;;;;;;;65.82;32.78;;;;;;;9.98;100.00;100979.06;5068746;28;20131;-61
2021/11/13 09:51:22;;;;;;;57.90;28.67;;;;;;;9.95;100.00;100976.38;5070292;28;20024;-62
2021/11/13 09:53:48;;;;;;;57.53;28.85;;;;;;;9.98;100.00;100984.34;5072699;28;20029;-64
2021/11/13 09:56:14;;;;;;;58.28;28.95;;;;;;;9.98;100.00;100986.97;5072345;28;20093;-63
2021/11/13 09:58:40;;;;;;;55.50;28.40;;;;;;;9.97;100.00;100987.84;5071112;28;20064;-64
2021/11/13 10:01:05;;;;;;;56.08;29.80;;;;;;;10.05;100.00;100980.00;5072864;28;20063;-63
2021/11/13 10:03:31;;;;;;;56.15;28.58;;;;;;;10.18;100.00;100976.59;5072423;28;20493;-64
2021/11/13 10:06:01;;;;;;;55.08;27.55;;;;;;;10.36;100.00;100983.78;5067586;28;20169;-63
2021/11/13 10:08:27;;;;;;;53.63;28.38;;;;;;;10.33;100.00;100978.47;5072378;28;20111;-63
2021/11/13 10:11:02;;;;;;;53.88;28.90;;;;;;;10.38;100.00;100992.63;5071556;28;20034;-63
2021/11/13 10:13:35;;;;;;;51.40;26.65;;;;;;;10.38;100.00;100991.72;5068791;28;20034;-63
2021/11/13 10:16:04;;;;;;;48.42;25.40;;;;;;;10.33;100.00;100989.03;5070362;28;20020;-63
2021/11/13 10:18:38;;;;;;;47.50;26.63;;;;;;;10.33;100.00;100988.16;5072232;28;20028;-63
2021/11/13 10:21:09;;;;;;;46.22;24.98;;;;;;;10.36;100.00;100997.00;5071586;28;20032;-64
2021/11/13 10:23:42;;;;;;;45.38;25.17;;;;;;;10.43;100.00;100998.81;5072280;28;20032;-63
2021/11/13 10:26:17;;;;;;;44.70;23.67;;;;;;;10.81;100.00;100999.97;5071541;28;20024;-64
2021/11/13 10:29:08;;;;;;;43.20;23.10;;;;;;;10.96;100.00;101004.44;5067159;28;20104;-63
2021/11/13 10:31:37;;;;;;;42.25;22.48;;;;;;;10.90;100.00;101007.94;5068082;28;20045;-65
2021/11/13 10:34:06;;;;;;;37.35;19.95;;;;;;;10.87;100.00;101012.34;5069450;28;20103;-64
2021/11/13 10:36:35;;;;;;;36.83;19.27;;;;;;;10.70;100.00;101020.16;5063232;28;20021;-63
2021/11/13 10:39:06;;;;;;;38.00;19.70;;;;;;;10.67;100.00;101021.00;5062162;28;20484;-64
2021/11/13 10:41:50;;;;;;;39.28;20.73;;;;;;;10.56;100.00;101020.06;5063259;28;20039;-63
2021/11/13 10:44:22;;;;;;;43.25;24.92;;;;;;;10.50;100.00;101017.38;5061280;28;20025;-64
2021/11/13 10:46:48;;;;;;;42.28;24.60;;;;;;;10.46;100.00;101012.06;5064443;28;20043;-63
2021/11/13 10:49:14;;;;;;;43.22;25.10;;;;;;;10.47;100.00;101018.25;5061028;28;20378;-64
2021/11/13 10:51:52;;;;;;;45.10;25.13;;;;;;;10.49;100.00;101016.50;5061466;28;20032;-63
2021/11/13 10:54:18;;;;;;;43.83;25.13;;;;;;;10.52;100.00;101015.63;5061889;28;20021;-66
2021/11/13 10:56:49;;;;;;;40.78;22.45;;;;;;;10.63;100.00;101014.84;5064724;28;20379;-63
2021/11/13 10:59:14;;;;;;;39.65;22.10;;;;;;;10.67;100.00;101009.56;5061368;28;20353;-64
2021/11/13 11:01:46;;;;;;;39.33;22.80;;;;;;;10.73;100.00;101014.88;5061191;28;20064;-65
2021/11/13 11:04:14;;;;;;;40.15;23.42;;;;;;;10.79;100.00;101020.19;5061177;28;20056;-63
2021/11/13 11:06:46;;;;;;;38.58;21.63;;;;;;;10.78;100.00;101013.16;5064381;28;20024;-64